Time;durP1;ratioP1;P1;durP2;ratioP2;P2;SDS_P1;SDS_P2;PMS_P1;PMS_P2;Temp;Humidity;BMP_temperature;BMP_pressure;BME280_temperature;BME280_humidity;BME280_pressure;Samples;Min_cycle;Max_cycle;Signal;HPM_P1;HPM_P2
2022/03/28 00:00:38;;;;;;;;;36.25;32.25;;;;;16.24;36.32;102221.84;4956636;28;48907;-84
2022/03/28 00:03:05;;;;;;;;;25.67;25.67;;;;;16.13;36.56;102208.88;4964268;28;45487;-84
2022/03/28 00:05:30;;;;;;;;;41.25;32.25;;;;;16.00;36.85;102195.06;4974574;28;45406;-84
2022/03/28 00:07:56;;;;;;;;;30.33;27.00;;;;;16.14;36.85;102221.38;4959799;28;45430;-84
2022/03/28 00:10:21;;;;;;;;;33.50;30.25;;;;;16.10;36.87;102219.75;4956508;28;45745;-84
2022/03/28 00:12:46;;;;;;;;;35.50;30.50;;;;;16.07;36.79;102214.50;4956228;28;45393;-84
2022/03/28 00:15:12;;;;;;;;;29.75;26.50;;;;;16.04;36.87;102209.25;4954631;28;48195;-85
2022/03/28 00:17:38;;;;;;;;;25.50;25.50;;;;;16.00;37.29;102213.03;4938646;28;45979;-85
2022/03/28 00:20:06;;;;;;;;;37.25;33.50;;;;;15.97;37.48;102215.84;4955987;28;45424;-85
2022/03/28 00:22:32;;;;;;;;;31.00;27.50;;;;;15.70;37.47;102177.53;4955881;28;45371;-85
2022/03/28 00:24:57;;;;;;;;;35.50;27.25;;;;;15.82;37.62;102206.59;4955694;28;45313;-84
2022/03/28 00:27:22;;;;;;;;;39.00;32.25;;;;;15.33;37.52;102130.69;4958099;28;45332;-85
2022/03/28 00:29:48;;;;;;;;;31.33;29.33;;;;;15.60;37.94;102174.34;4960979;28;45250;-84
2022/03/28 00:32:13;;;;;;;;;33.25;30.25;;;;;15.56;37.98;102165.53;4962586;28;45431;-85
2022/03/28 00:34:39;;;;;;;;;32.75;30.00;;;;;15.80;38.02;102195.94;4961949;28;45409;-85
2022/03/28 00:37:05;;;;;;;;;32.50;31.00;;;;;15.33;38.38;102131.56;4994820;27;45400;-84
2022/03/28 00:39:31;;;;;;;;;31.50;29.25;;;;;15.35;38.03;102136.88;5001087;27;45464;-84
2022/03/28 00:41:56;;;;;;;;;35.50;31.00;;;;;15.54;38.16;102175.47;4977337;27;45592;-85
2022/03/28 00:44:23;;;;;;;;;33.00;31.00;;;;;15.70;38.26;102193.66;4961888;28;45795;-85
2022/03/28 00:46:48;;;;;;;;;31.25;29.75;;;;;15.69;38.27;102198.16;4976950;28;45329;-85
2022/03/28 00:49:14;;;;;;;;;33.00;31.33;;;;;15.11;38.55;102101.16;4961791;28;45303;-85
2022/03/28 00:51:40;;;;;;;;;33.00;30.33;;;;;15.13;38.75;102110.91;4962207;28;45420;-84
2022/03/28 00:54:07;;;;;;;;;32.33;29.67;;;;;15.08;38.75;102110.22;4944426;28;48247;-84
2022/03/28 00:56:33;;;;;;;;;32.50;30.00;;;;;15.33;38.69;102160.22;4961529;28;45262;-84
2022/03/28 00:58:59;;;;;;;;;30.75;28.50;;;;;15.52;38.82;102189.91;4961875;28;45747;-84
2022/03/28 01:01:26;;;;;;;;;32.00;28.25;;;;;15.44;39.03;102184.84;4994201;27;45605;-84
2022/03/28 01:03:51;;;;;;;;;31.00;27.33;;;;;15.39;38.91;102176.97;4989232;28;46151;-84
2022/03/28 01:06:17;;;;;;;;;25.50;22.25;;;;;15.34;39.05;102162.88;4985121;27;45277;-84
2022/03/28 01:08:43;;;;;;;;;30.00;26.25;;;;;15.45;39.04;102180.34;4981226;28;45501;-84
2022/03/28 01:11:13;;;;;;;;;31.67;26.00;;;;;15.40;39.45;102172.47;4973004;28;45478;-84
2022/03/28 01:13:41;;;;;;;;;28.33;25.00;;;;;15.10;39.41;102135.19;4961218;28;45587;-85
2022/03/28 01:16:08;;;;;;;;;26.00;22.00;;;;;15.16;39.49;102150.19;4961576;28;45406;-84
2022/03/28 01:18:34;;;;;;;;;34.00;30.50;;;;;15.28;39.75;102172.97;4972611;28;45518;-84
2022/03/28 01:21:00;;;;;;;;;36.25;32.25;;;;;14.91;39.58;102118.06;4981055;28;45421;-84
2022/03/28 01:23:26;;;;;;;;;27.00;23.33;;;;;15.25;40.08;102174.00;4980872;28;45523;-84
2022/03/28 01:25:53;;;;;;;;;28.00;27.00;;;;;15.08;40.05;102146.94;4980946;28;45302;-85
2022/03/28 01:28:20;;;;;;;;;31.00;28.00;;;;;15.25;40.07;102167.75;4980748;28;45396;-84
2022/03/28 02:01:02;;;;;;;;;36.33;28.67;;;;;15.03;40.90;102149.81;4957445;28;45808;-84
2022/03/28 02:03:27;;;;;;;;;27.33;24.67;;;;;15.03;41.35;102148.91;4968510;28;45406;-84
2022/03/28 02:05:52;;;;;;;;;29.33;28.00;;;;;15.02;41.28;102148.06;4977379;28;45461;-84
2022/03/28 02:08:17;;;;;;;;;25.33;22.67;;;;;15.04;41.19;102145.31;4976892;28;45462;-84
2022/03/28 02:10:43;;;;;;;;;25.33;22.00;;;;;15.01;41.53;102149.00;4976442;28;50083;-84
2022/03/28 02:13:08;;;;;;;;;34.00;28.67;;;;;14.81;41.41;102119.38;4976990;28;45363;-85
2022/03/28 02:15:34;;;;;;;;;34.67;28.67;;;;;14.91;41.32;102143.13;4976735;28;45365;-84
2022/03/28 02:17:59;;;;;;;;;24.33;21.00;;;;;14.75;41.58;102118.69;4977390;28;45358;-85
2022/03/28 02:20:25;;;;;;;;;32.33;26.67;;;;;14.80;42.13;102142.66;4975428;28;46075;-84
2022/03/28 02:22:50;;;;;;;;;30.33;24.33;;;;;14.73;42.47;102136.66;4976901;28;45351;-85
2022/03/28 02:25:16;;;;;;;;;25.67;24.00;;;;;14.47;42.36;102102.75;4976950;28;45477;-85
2022/03/28 02:27:42;;;;;;;;;31.00;29.75;;;;;14.30;42.62;102081.91;4976611;28;45211;-84
2022/03/28 02:30:10;;;;;;;;;26.00;23.00;;;;;14.66;42.87;102136.97;4975484;28;47168;-84
2022/03/28 02:32:35;;;;;;;;;29.67;24.00;;;;;14.32;43.00;102088.09;4976270;28;45421;-84
2022/03/28 02:35:03;;;;;;;;;28.33;27.33;;;;;14.65;43.06;102141.44;4976678;28;45389;-84
2022/03/28 02:37:28;;;;;;;;;31.33;30.67;;;;;14.41;42.63;102105.66;4974036;28;45240;-84
2022/03/28 02:39:54;;;;;;;;;38.67;30.00;;;;;14.59;42.83;102139.00;4956830;28;45268;-84
2022/03/28 02:42:22;;;;;;;;;33.33;26.67;;;;;14.28;42.95;102083.81;4957276;28;45250;-84
2022/03/28 02:44:49;;;;;;;;;27.67;26.00;;;;;14.55;43.41;102129.31;4959068;28;45230;-84
2022/03/28 02:47:16;;;;;;;;;36.00;29.00;;;;;14.55;43.24;102124.81;4963658;28;45362;-84
2022/03/28 02:49:41;;;;;;;;;32.00;27.67;;;;;14.52;43.63;102121.34;4975929;28;45461;-84
2022/03/28 02:52:07;;;;;;;;;38.33;30.67;;;;;14.45;43.99;102107.28;4973926;28;48872;-84
2022/03/28 02:54:32;;;;;;;;;34.00;27.33;;;;;14.25;43.60;102072.28;4976183;28;45516;-85
2022/03/28 02:56:58;;;;;;;;;33.00;29.67;;;;;14.01;43.92;102032.06;4976538;28;45398;-84
2022/03/28 02:59:23;;;;;;;;;29.00;24.67;;;;;14.42;44.18;102098.47;4976287;28;46125;-84
2022/03/28 03:01:50;;;;;;;;;22.67;21.00;;;;;14.07;43.87;102045.25;4980699;28;47162;-84
2022/03/28 03:04:15;;;;;;;;;32.67;30.00;;;;;14.03;43.74;102032.88;4967671;28;45414;-85
2022/03/28 03:06:41;;;;;;;;;28.00;26.00;;;;;14.47;43.79;102102.75;4975903;28;45642;-84
2022/03/28 03:09:06;;;;;;;;;30.33;24.00;;;;;14.30;44.11;102075.66;4993759;28;45587;-84
2022/03/28 03:11:31;;;;;;;;;30.00;30.00;;;;;14.45;43.87;102103.75;4979432;28;45493;-84
2022/03/28 03:13:56;;;;;;;;;25.00;22.33;;;;;14.07;44.12;102037.22;4975835;28;45290;-84
2022/03/28 03:16:22;;;;;;;;;34.75;32.25;;;;;14.43;44.41;102100.25;4976469;28;45232;-84
2022/03/28 03:18:47;;;;;;;;;44.25;34.25;;;;;14.23;44.13;102071.47;4975776;28;46279;-84
2022/03/28 03:21:13;;;;;;;;;36.00;33.50;;;;;14.27;44.56;102073.97;4976011;28;45528;-84
2022/03/28 03:23:38;;;;;;;;;32.67;31.67;;;;;14.28;44.72;102073.06;4976002;28;45478;-84
2022/03/28 03:26:03;;;;;;;;;30.50;28.75;;;;;14.30;44.79;102070.31;4976600;28;45873;-84
2022/03/28 03:28:29;;;;;;;;;41.75;30.50;;;;;14.13;44.52;102057.53;4975673;28;53074;-84
2022/03/28 03:30:54;;;;;;;;;36.25;32.00;;;;;14.01;45.25;102044.59;4975810;28;45430;-84
2022/03/28 03:33:19;;;;;;;;;34.50;31.50;;;;;14.21;45.50;102092.09;4991065;28;45391;-84
2022/03/28 03:35:45;;;;;;;;;36.00;30.25;;;;;14.20;45.60;102080.50;4976083;28;45411;-84
2022/03/28 03:38:10;;;;;;;;;32.75;32.50;;;;;14.17;45.27;102086.00;4975692;28;45317;-84
2022/03/28 03:40:36;;;;;;;;;32.25;32.25;;;;;13.91;45.45;102036.91;4975705;28;45376;-84
2022/03/28 03:43:01;;;;;;;;;34.50;30.00;;;;;13.65;45.70;102000.34;4975816;28;45398;-84
2022/03/28 03:45:26;;;;;;;;;28.75;28.50;;;;;14.02;45.47;102071.34;4976251;28;45497;-84
2022/03/28 03:47:52;;;;;;;;;42.25;35.75;;;;;14.12;45.79;102090.66;4975540;28;45494;-85
2022/03/28 03:50:17;;;;;;;;;37.00;34.00;;;;;13.76;46.08;102025.88;4975761;28;45355;-84
2022/03/28 03:52:43;;;;;;;;;31.00;29.67;;;;;13.91;46.09;102052.13;4975767;28;45497;-85
2022/03/28 03:55:09;;;;;;;;;33.75;31.50;;;;;13.72;45.94;102020.63;4975881;28;45641;-84
2022/03/28 03:57:34;;;;;;;;;44.75;35.75;;;;;14.05;46.55;102075.75;4975386;28;46208;-84
2022/03/28 03:59:59;;;;;;;;;32.50;31.00;;;;;13.97;46.36;102076.00;4990506;28;45516;-84
2022/03/28 04:02:25;;;;;;;;;34.25;31.00;;;;;13.86;46.94;102057.66;4987445;28;45457;-84
2022/03/28 04:04:50;;;;;;;;;40.50;37.25;;;;;13.83;46.84;102047.00;5058198;28;45458;-84
2022/03/28 04:07:15;;;;;;;;;48.00;34.75;;;;;13.68;47.07;102026.16;5057731;28;46491;-84
2022/03/28 04:09:41;;;;;;;;;48.50;35.50;;;;;13.96;47.42;102076.94;5039573;28;45346;-84
2022/03/28 04:12:08;;;;;;;;;38.50;34.75;;;;;13.76;47.23;102042.81;5056379;28;45469;-84
2022/03/28 04:14:33;;;;;;;;;38.25;36.25;;;;;13.93;47.65;102077.06;5057995;28;45405;-84
2022/03/28 04:16:58;;;;;;;;;35.50;33.50;;;;;13.90;47.40;102071.78;5057333;28;46131;-84
2022/03/28 04:19:23;;;;;;;;;31.00;30.00;;;;;13.73;47.44;102062.56;5057385;28;45469;-84
2022/03/28 04:21:49;;;;;;;;;38.75;35.25;;;;;13.85;47.89;102084.50;5057620;28;45541;-84
2022/03/28 04:24:14;;;;;;;;;44.50;36.25;;;;;13.81;47.78;102083.72;5057833;28;45491;-84
2022/03/28 04:26:39;;;;;;;;;34.75;32.50;;;;;13.71;47.82;102067.09;5057267;28;46114;-84
2022/03/28 04:29:05;;;;;;;;;40.00;35.50;;;;;13.78;47.99;102082.97;5057233;28;46783;-84
2022/03/28 04:31:30;;;;;;;;;46.50;37.00;;;;;13.76;48.03;102085.69;5057663;28;45519;-84
2022/03/28 04:33:57;;;;;;;;;36.75;32.75;;;;;13.50;48.31;102051.78;5057844;28;45387;-84
2022/03/28 04:36:23;;;;;;;;;39.75;35.00;;;;;13.40;48.56;102021.78;5057213;28;46084;-84
2022/03/28 04:38:49;;;;;;;;;40.25;35.50;;;;;13.70;48.72;102077.88;5039146;28;45386;-84
2022/03/28 04:41:14;;;;;;;;;37.25;32.00;;;;;13.44;48.57;102038.63;4990260;28;45532;-84
2022/03/28 04:43:40;;;;;;;;;52.00;39.25;;;;;13.33;49.10;102028.28;4994905;28;45488;-84
2022/03/28 04:46:05;;;;;;;;;44.75;35.50;;;;;13.54;48.91;102060.59;4993963;27;46686;-84
2022/03/28 04:48:30;;;;;;;;;37.00;34.50;;;;;13.49;49.10;102058.06;4994163;28;45345;-85
2022/03/28 04:50:56;;;;;;;;;43.75;36.00;;;;;13.44;49.30;102052.00;4986708;28;45481;-84
2022/03/28 04:53:21;;;;;;;;;49.00;38.25;;;;;13.57;49.49;102066.72;4985514;28;45224;-84
2022/03/28 04:55:46;;;;;;;;;40.75;34.50;;;;;13.61;49.36;102070.16;4994342;28;46043;-84
2022/03/28 04:58:12;;;;;;;;;44.00;38.50;;;;;13.25;49.68;102012.44;4993120;27;45945;-84
2022/03/28 05:00:37;;;;;;;;;39.25;34.75;;;;;13.39;49.58;102032.53;4994108;27;45309;-84
2022/03/28 05:03:03;;;;;;;;;45.75;37.75;;;;;13.58;49.54;102065.78;4989246;28;45565;-84
2022/03/28 05:05:28;;;;;;;;;44.50;37.25;;;;;13.43;49.68;102037.72;4974241;28;45302;-84
2022/03/28 05:07:53;;;;;;;;;48.75;35.75;;;;;13.62;49.81;102077.25;4974767;28;45443;-84
2022/03/28 05:10:18;;;;;;;;;42.50;36.50;;;;;13.44;49.68;102031.44;4974492;28;45500;-84
2022/03/28 05:12:45;;;;;;;;;49.25;38.50;;;;;13.36;49.97;102016.56;4974934;28;45525;-84
2022/03/28 05:15:10;;;;;;;;;40.75;35.00;;;;;13.60;49.91;102057.69;4976325;28;45410;-84
2022/03/28 05:17:36;;;;;;;;;40.25;37.00;;;;;13.44;49.61;102030.59;4977204;28;45480;-85
2022/03/28 05:20:01;;;;;;;;;40.50;33.75;;;;;13.29;50.02;102013.22;4977650;28;45489;-84
2022/03/28 05:22:27;;;;;;;;;45.75;39.75;;;;;13.57;50.13;102066.72;4959901;28;45320;-84
2022/03/28 05:24:54;;;;;;;;;50.00;39.50;;;;;13.57;49.89;102065.84;4977426;28;45276;-84
2022/03/28 05:27:20;;;;;;;;;49.25;39.00;;;;;13.29;50.00;102022.13;4959928;28;45514;-84
2022/03/28 05:29:46;;;;;;;;;49.25;40.00;;;;;13.27;50.12;102025.75;4977518;28;45266;-84
2022/03/28 05:32:11;;;;;;;;;52.25;40.25;;;;;13.56;50.21;102067.66;4977765;28;45577;-84
2022/03/28 05:34:37;;;;;;;;;51.50;39.00;;;;;13.38;50.56;102042.38;4977008;28;46135;-84
2022/03/28 05:37:09;;;;;;;;;47.75;39.00;;;;;13.45;50.32;102051.06;4977450;28;45354;-84
2022/03/28 05:39:36;;;;;;;;;43.00;37.50;;;;;13.50;50.21;102055.31;4977196;28;45340;-84
2022/03/28 05:42:02;;;;;;;;;42.25;35.25;;;;;13.58;50.73;102070.25;4977814;28;45293;-84
2022/03/28 05:44:28;;;;;;;;;48.25;37.50;;;;;13.35;50.96;102030.91;4959096;28;48601;-84
2022/03/28 05:46:54;;;;;;;;;45.50;36.50;;;;;13.37;50.77;102029.91;4977150;28;45271;-84
2022/03/28 05:49:20;;;;;;;;;55.50;42.00;;;;;13.29;50.84;102019.44;4977321;28;45354;-84
2022/03/28 05:51:46;;;;;;;;;50.00;39.00;;;;;13.63;50.89;102057.59;4975968;28;45585;-84
2022/03/28 05:54:12;;;;;;;;;58.50;41.50;;;;;13.50;50.83;102033.91;4977005;28;45389;-84
2022/03/28 05:56:38;;;;;;;;;56.25;45.00;;;;;13.54;51.13;102028.44;4976668;28;45567;-84
2022/03/28 05:59:04;;;;;;;;;50.50;40.25;;;;;13.48;51.15;102014.31;4976992;28;45371;-84
2022/03/28 06:01:29;;;;;;;;;50.25;41.25;;;;;13.65;50.73;102051.25;4975588;28;45575;-84
2022/03/28 06:03:57;;;;;;;;;53.25;45.00;;;;;13.46;50.98;102016.22;5039060;28;48213;-84
2022/03/28 06:06:24;;;;;;;;;48.25;40.25;;;;;13.77;51.08;102057.09;5059254;28;45249;-83
2022/03/28 06:08:49;;;;;;;;;55.25;45.50;;;;;13.71;51.31;102050.16;5059616;28;45370;-84
2022/03/28 06:11:14;;;;;;;;;45.75;39.00;;;;;13.79;51.34;102063.25;5027695;27;45473;-82
2022/03/28 06:13:42;;;;;;;;;58.00;45.25;;;;;13.66;51.60;102026.19;4978536;28;46880;-82
2022/03/28 06:16:07;;;;;;;;;53.50;42.50;;;;;13.40;51.37;101981.59;4996723;28;45535;-85
2022/03/28 06:18:33;;;;;;;;;48.00;41.75;;;;;13.66;51.41;102026.19;4978177;28;45369;-87
2022/03/28 06:20:58;;;;;;;;;51.75;39.25;;;;;13.36;51.21;101963.00;4988152;28;45400;-84
2022/03/28 06:23:23;;;;;;;;;47.75;38.25;;;;;13.96;50.85;102052.81;4978440;28;47087;-83
2022/03/28 06:25:48;;;;;;;;;54.00;43.25;;;;;13.99;51.07;102052.69;4983979;28;45477;-83
2022/03/28 06:28:15;;;;;;;;;55.00;42.75;;;;;13.67;51.04;101994.91;4996117;27;45562;-83
2022/03/28 06:30:41;;;;;;;;;54.50;40.75;;;;;13.92;50.96;102037.78;5005653;28;45618;-84
2022/03/28 06:33:06;;;;;;;;;42.75;38.50;;;;;14.05;50.90;102055.16;4978035;28;46302;-83
2022/03/28 06:35:32;;;;;;;;;47.75;38.50;;;;;13.87;50.98;102019.19;4990351;27;45332;-83
2022/03/28 06:37:57;;;;;;;;;53.50;42.00;;;;;13.74;51.08;101993.75;4977292;28;45423;-84
2022/03/28 06:40:24;;;;;;;;;45.25;40.50;;;;;14.09;50.72;102054.13;4978993;28;45545;-84
2022/03/28 06:42:49;;;;;;;;;52.00;40.00;;;;;13.96;51.04;102031.38;4987307;28;45298;-82
2022/03/28 06:45:15;;;;;;;;;47.00;41.25;;;;;13.96;51.11;102039.41;4995783;28;45454;-81
2022/03/28 06:47:40;;;;;;;;;76.75;59.25;;;;;14.05;51.24;102041.75;5035671;28;45387;-81
2022/03/28 06:50:07;;;;;;;;;61.00;46.75;;;;;14.13;50.91;102045.00;5023118;28;45426;-81
2022/03/28 06:52:34;;;;;;;;;47.75;39.50;;;;;13.96;51.26;102015.28;5059601;27;45625;-81
2022/03/28 06:54:59;;;;;;;;;51.50;41.00;;;;;14.07;50.82;102028.28;4965144;28;45495;-81
2022/03/28 06:57:25;;;;;;;;;53.00;42.25;;;;;13.93;51.01;102004.69;4983668;28;45668;-82
2022/03/28 06:59:51;;;;;;;;;50.00;38.25;;;;;14.06;50.83;102015.81;4996025;28;45238;-81
2022/03/28 07:02:17;;;;;;;;;48.25;39.25;;;;;14.27;50.87;102040.94;5034066;28;45459;-81
2022/03/28 07:04:42;;;;;;;;;57.25;45.50;;;;;14.32;51.23;102041.63;4999238;28;45185;-81
2022/03/28 07:07:08;;;;;;;;;48.75;40.50;;;;;14.10;50.98;101990.66;4995424;28;45440;-81
2022/03/28 07:09:34;;;;;;;;;47.75;37.50;;;;;14.35;51.33;102022.72;4978015;28;45577;-81
2022/03/28 07:12:00;;;;;;;;;40.00;35.75;;;;;14.47;51.39;102029.41;4980972;28;45688;-81
2022/03/28 07:14:25;;;;;;;;;42.25;35.50;;;;;14.57;51.53;102037.09;4979115;28;45715;-82
2022/03/28 07:16:52;;;;;;;;;49.50;39.00;;;;;14.47;52.07;102007.94;4975505;28;45883;-83
2022/03/28 07:19:18;;;;;;;;;51.75;39.75;;;;;14.72;52.05;102032.03;4966047;28;45423;-81
2022/03/28 07:21:44;;;;;;;;;45.50;39.25;;;;;14.78;51.83;102040.72;4979608;28;45473;-80
2022/03/28 07:24:10;;;;;;;;;49.75;40.25;;;;;14.81;52.46;102025.44;5048072;28;45766;-83
2022/03/28 07:26:36;;;;;;;;;49.00;39.75;;;;;14.96;52.24;102031.03;4995121;28;45354;-81
2022/03/28 07:29:04;;;;;;;;;50.75;41.75;;;;;14.27;52.07;101905.03;5079021;28;45394;-92
2022/03/28 07:31:30;;;;;;;;;42.00;37.25;;;;;14.76;52.40;101980.84;5077001;28;48205;-83
2022/03/28 07:34:29;;;;;;;;;48.25;41.25;;;;;15.23;52.04;102036.19;4958530;28;45565;-83
2022/03/28 07:36:40;;;;;;;;;48.50;38.50;;;;;15.31;51.64;102036.75;4967713;28;45473;-83
2022/03/28 07:39:06;;;;;;;;;51.75;42.00;;;;;15.39;51.85;102031.91;4971900;28;45433;-83
2022/03/28 07:41:31;;;;;;;;;49.25;40.50;;;;;15.32;51.50;102005.38;4965593;28;45529;-83
2022/03/28 07:43:56;;;;;;;;;49.75;39.50;;;;;15.46;51.13;102018.22;4976767;28;45445;-83
2022/03/28 07:46:21;;;;;;;;;45.50;38.25;;;;;15.66;51.30;102025.38;4975505;28;50879;-83
2022/03/28 07:48:47;;;;;;;;;49.25;41.00;;;;;15.52;51.27;101985.69;4958603;28;45418;-83
2022/03/28 07:51:12;;;;;;;;;51.00;42.00;;;;;15.46;50.77;101959.09;4954901;28;46372;-83
2022/03/28 07:53:38;;;;;;;;;49.75;40.25;;;;;15.92;51.03;102017.06;4955215;28;49156;-83
2022/03/28 07:56:04;;;;;;;;;49.75;41.50;;;;;15.95;50.23;102016.91;4956314;28;45566;-83
2022/03/28 07:58:29;;;;;;;;;54.00;40.50;;;;;16.07;49.89;102020.84;4956132;28;45441;-83
2022/03/28 08:00:55;;;;;;;;;55.25;42.75;;;;;15.99;50.00;101996.13;4955996;28;45839;-84
2022/03/28 08:03:20;;;;;;;;;42.50;38.25;;;;;16.22;49.83;102011.19;4976770;28;45392;-84
2022/03/28 08:05:46;;;;;;;;;58.25;42.00;;;;;16.06;49.49;101978.78;4995199;28;45390;-83
2022/03/28 08:08:12;;;;;;;;;51.00;41.00;;;;;16.38;49.45;102020.28;4995679;28;45447;-83
2022/03/28 08:10:37;;;;;;;;;53.75;41.25;;;;;16.02;49.22;101943.06;4994436;28;46311;-84
2022/03/28 08:13:03;;;;;;;;;54.00;40.75;;;;;16.30;49.14;101978.56;4994991;27;45354;-84
2022/03/28 08:15:30;;;;;;;;;50.50;40.75;;;;;16.50;48.84;101991.03;4994989;28;45327;-83
2022/03/28 08:17:58;;;;;;;;;56.75;44.25;;;;;16.61;48.71;101999.47;4987404;27;45429;-84
2022/03/28 08:20:24;;;;;;;;;55.25;43.75;;;;;16.33;48.30;101922.75;4974903;28;46237;-83
2022/03/28 08:22:49;;;;;;;;;51.50;41.75;;;;;17.03;48.24;102017.16;4975278;28;45416;-84
2022/03/28 08:25:19;;;;;;;;;56.00;43.25;;;;;16.96;47.40;101973.50;4975410;28;45358;-84
2022/03/28 08:27:44;;;;;;;;;49.50;41.00;;;;;17.19;47.61;101980.41;4958980;28;45469;-84
2022/03/28 08:30:12;;;;;;;;;54.25;40.50;;;;;17.23;46.93;101952.34;4963508;28;46193;-84
2022/03/28 08:32:38;;;;;;;;;54.75;41.25;;;;;17.30;46.83;101934.00;4994685;27;45301;-84
2022/03/28 08:35:05;;;;;;;;;50.25;36.50;;;;;17.60;45.75;101961.16;4993278;28;45568;-84
2022/03/28 08:37:31;;;;;;;;;51.75;39.75;;;;;18.08;45.81;101999.09;4994867;28;45515;-84
2022/03/28 08:39:57;;;;;;;;;44.00;36.75;;;;;18.04;45.43;101957.03;4994192;27;45460;-84
2022/03/28 08:42:24;;;;;;;;;52.50;39.75;;;;;18.34;44.76;101976.88;4994598;28;45250;-84
2022/03/28 08:44:51;;;;;;;;;51.75;40.00;;;;;18.70;44.38;101997.31;4994775;28;45764;-84
2022/03/28 08:47:22;;;;;;;;;56.00;43.25;;;;;18.69;43.87;101952.38;4994853;28;45315;-84
2022/03/28 08:49:49;;;;;;;;;52.00;42.00;;;;;19.47;42.54;101991.94;4997081;27;46044;-84
2022/03/28 08:52:16;;;;;;;;;51.50;41.25;;;;;19.52;41.83;101960.94;4997497;28;45421;-84
2022/03/28 08:54:42;;;;;;;;;50.75;38.50;;;;;19.82;42.46;101992.47;4983532;27;45461;-84
2022/03/28 08:57:07;;;;;;;;;50.00;40.50;;;;;20.22;41.55;101988.09;4977965;28;45332;-84
2022/03/28 08:59:32;;;;;;;;;51.75;41.75;;;;;21.24;39.63;101940.72;4963887;28;46110;-84
2022/03/28 09:01:58;;;;;;;;;49.75;40.25;;;;;22.78;36.91;101957.63;4958257;28;45425;-84
2022/03/28 09:04:24;;;;;;;;;49.25;38.25;;;;;23.89;34.79;101966.19;4976933;28;45297;-84
2022/03/28 09:06:49;;;;;;;;;52.75;41.50;;;;;24.61;33.33;101943.06;4978215;28;45610;-84
2022/03/28 09:09:16;;;;;;;;;48.67;39.67;;;;;25.43;31.67;101969.72;4977484;28;45369;-84
2022/03/28 09:12:09;;;;;;;;;48.00;38.75;;;;;26.00;31.39;101970.19;4977506;28;45291;-84
2022/03/28 09:14:37;;;;;;;;;45.00;36.67;;;;;26.45;30.32;101965.09;4977584;28;45505;-84
2022/03/28 09:17:09;;;;;;;;;47.00;38.00;;;;;27.00;30.71;101961.03;4977802;28;45379;-84
2022/03/28 09:19:49;;;;;;;;;50.00;39.25;;;;;27.68;28.91;101949.97;4977190;28;46161;-84
2022/03/28 09:22:19;;;;;;;;;44.67;37.00;;;;;28.31;27.87;101936.38;4977156;28;45436;-84
2022/03/28 09:24:45;;;;;;;;;48.00;38.00;;;;;28.80;27.23;101897.63;4977100;28;45335;-84
2022/03/28 09:27:19;;;;;;;;;41.33;35.33;;;;;29.70;26.72;101947.75;4977305;28;45398;-84
2022/03/28 09:29:58;;;;;;;;;42.67;34.67;;;;;30.34;25.90;101945.44;4976991;28;46166;-84
2022/03/28 09:32:30;;;;;;;;;37.67;34.00;;;;;30.82;25.09;101923.69;4977364;28;45249;-84
2022/03/28 09:35:06;;;;;;;;;46.33;36.00;;;;;31.55;24.51;101940.19;4977446;28;45524;-85
2022/03/28 09:37:52;;;;;;;;;41.00;34.33;;;;;32.17;23.62;101938.56;4977675;28;45291;-84
2022/03/28 09:40:40;;;;;;;;;38.33;33.33;;;;;32.67;23.33;101897.75;4976814;28;45404;-85
2022/03/28 09:43:07;;;;;;;;;41.33;33.67;;;;;33.43;22.41;101902.25;4977240;28;45463;-85
2022/03/28 09:45:36;;;;;;;;;41.67;34.67;;;;;34.30;21.41;101928.28;4977214;28;45375;-85
2022/03/28 09:48:08;;;;;;;;;39.00;35.00;;;;;35.00;21.31;101923.91;4977526;28;45229;-85
2022/03/28 09:50:38;;;;;;;;;39.33;33.33;;;;;35.09;19.55;101880.28;5061048;28;47384;-85
2022/03/28 09:53:15;;;;;;;;;44.33;36.67;;;;;35.91;20.42;101920.28;4977086;28;45378;-84
2022/03/28 09:56:08;;;;;;;;;46.67;37.67;;;;;36.59;19.14;101894.47;4977053;28;45417;-85
2022/03/28 09:59:01;;;;;;;;;43.67;37.33;;;;;37.45;18.85;101905.56;5055422;28;45631;-85
2022/03/28 10:01:39;;;;;;;;;36.67;30.33;;;;;38.39;17.43;101911.63;4976193;28;46068;-85
2022/03/28 10:04:08;;;;;;;;;42.00;35.00;;;;;39.19;16.45;101902.69;4977177;28;45343;-85
2022/03/28 10:06:38;;;;;;;;;38.00;32.33;;;;;39.99;15.34;101910.19;5044077;28;45324;-85
2022/03/28 10:09:05;;;;;;;;;45.00;35.33;;;;;40.63;15.00;101891.00;4977617;28;45274;-85
2022/03/28 10:11:31;;;;;;;;;36.00;31.00;;;;;40.88;14.60;101899.19;4976627;28;46509;-85
2022/03/28 10:13:57;;;;;;;;;39.00;33.33;;;;;40.15;15.27;101894.72;4959252;28;45372;-85
2022/03/28 10:16:24;;;;;;;;;34.00;31.67;;;;;39.50;14.72;101853.44;4962407;28;45276;-85
2022/03/28 10:18:50;;;;;;;;;34.67;31.00;;;;;39.61;14.89;101895.38;4957871;28;45390;-85
2022/03/28 10:21:36;;;;;;;;;34.33;29.33;;;;;39.87;14.96;101890.56;4956717;28;45564;-85
2022/03/28 10:24:14;;;;;;;;;31.67;29.33;;;;;39.89;14.25;101846.50;4956001;28;45469;-85
2022/03/28 10:26:44;;;;;;;;;27.33;24.67;;;;;40.18;13.87;101843.94;4957510;28;45324;-85
2022/03/28 10:29:13;;;;;;;;;31.33;28.67;;;;;40.64;13.68;101861.94;4957538;28;45495;-84
2022/03/28 10:31:59;;;;;;;;;31.67;30.67;;;;;41.10;13.67;101847.16;4956543;28;46017;-85
2022/03/28 10:34:55;;;;;;;;;37.67;31.67;;;;;41.77;12.99;101868.22;4956671;28;45542;-85
2022/03/28 10:37:39;;;;;;;;;25.00;23.33;;;;;41.90;12.71;101856.72;4956947;28;45322;-85
2022/03/28 10:40:30;;;;;;;;;26.33;25.33;;;;;41.69;12.54;101858.28;4957601;28;45146;-85
2022/03/28 10:43:04;;;;;;;;;32.00;29.00;;;;;41.55;12.62;101857.72;4957008;28;46654;-85
2022/03/28 10:45:35;;;;;;;;;32.00;30.00;;;;;41.42;12.81;101854.28;4956842;28;45365;-85
2022/03/28 10:48:01;;;;;;;;;28.67;26.00;;;;;41.37;12.20;101854.19;4957197;28;45414;-85
2022/03/28 10:50:26;;;;;;;;;31.67;27.67;;;;;41.32;12.44;101849.34;4939770;28;45329;-85
2022/03/28 10:53:10;;;;;;;;;25.67;25.33;;;;;41.02;13.00;101843.84;4955567;28;48002;-85
2022/03/28 10:55:48;;;;;;;;;32.00;28.00;;;;;40.69;13.19;101846.16;4955184;28;45480;-85
2022/03/28 10:58:18;;;;;;;;;28.33;26.67;;;;;40.40;12.77;101845.13;4956775;28;45426;-85
2022/03/28 11:01:11;;;;;;;;;30.67;27.33;;;;;39.87;13.22;101827.19;4956966;28;45327;-85
2022/03/28 11:03:53;;;;;;;;;34.00;29.33;;;;;39.16;13.72;101781.28;4959947;28;48200;-85
2022/03/28 11:06:40;;;;;;;;;23.33;23.33;;;;;39.10;13.14;101798.91;4976848;28;45419;-85
2022/03/28 11:09:05;;;;;;;;;32.67;27.00;;;;;38.99;12.87;101810.88;4977021;28;45500;-85
2022/03/28 11:11:33;;;;;;;;;25.33;22.33;;;;;38.68;12.54;101783.91;4959864;28;45398;-85
2022/03/28 11:14:00;;;;;;;;;33.00;26.33;;;;;38.58;12.79;101799.19;4976595;28;48089;-85
2022/03/28 11:16:39;;;;;;;;;26.00;25.33;;;;;38.20;13.32;101772.28;4976584;28;45503;-85
2022/03/28 11:19:25;;;;;;;;;25.67;23.33;;;;;38.30;13.61;101804.34;4976741;28;45487;-85
2022/03/28 11:22:02;;;;;;;;;30.00;24.67;;;;;38.27;13.80;101802.88;4960205;28;45441;-85
2022/03/28 11:24:48;;;;;;;;;28.67;24.67;;;;;38.33;13.94;101793.63;4976680;28;46382;-85
2022/03/28 11:27:16;;;;;;;;;28.00;25.33;;;;;38.08;12.92;101778.81;4976476;28;45503;-85
2022/03/28 11:29:43;;;;;;;;;31.00;26.33;;;;;37.58;12.94;101765.59;4976479;28;45607;-85
2022/03/28 11:32:11;;;;;;;;;30.00;27.33;;;;;36.96;13.42;101746.53;4977152;28;45418;-85
2022/03/28 11:34:37;;;;;;;;;28.33;24.33;;;;;36.54;13.89;101779.25;4960067;28;47433;-85
2022/03/28 11:37:03;;;;;;;;;28.00;23.33;;;;;35.62;14.40;101722.56;4976739;28;45364;-85
2022/03/28 11:39:31;;;;;;;;;30.00;25.33;;;;;35.20;15.10;101743.09;4976341;28;45437;-85
2022/03/28 11:41:57;;;;;;;;;27.67;23.67;;;;;34.77;14.77;101746.88;5043051;28;45446;-85